Mavisdale, Virginia
Current Conditions -  °F | °C
As of 3:15 AM on Thursday 29 Jan 2015 (Local Time) from KJFZ Reporting Station
Clear Clear  
Wind Chill: 29°   Ceiling: Unl
Heat Index: 34°   Visibility: 10mi
Dew Point:   Wind: 6mph
Humidity: 35%   Direction: 150°SSE
Pressure: 30.14"   Gusts: NA
Location:  37.2°N, 82.01°W
Report Text: KJFZ 290815Z AUTO 15005KT 10SM CLR 01/M13 A3014 RMK AO2 T00101130
Loading
Personal Weather Stations






























Interactive Weather Map New forecast layout! Learn more

10-Day Weather Forecast

Advertisements
Track Severe Weather on mobile